createdAt,value
2023-04-12T00:02:19.307Z,16.60
2023-04-12T00:04:46.275Z,17.42
2023-04-12T00:07:13.120Z,16.33
2023-04-12T00:09:39.897Z,15.98
2023-04-12T00:12:06.965Z,17.50
2023-04-12T00:14:33.743Z,17.13
2023-04-12T00:17:00.791Z,17.58
2023-04-12T00:19:27.827Z,17.92
2023-04-12T00:21:54.844Z,17.02
2023-04-12T00:24:21.631Z,17.63
2023-04-12T00:26:48.422Z,16.70
2023-04-12T00:29:16.254Z,17.45
2023-04-12T00:31:43.241Z,18.17
2023-04-12T00:34:10.072Z,16.35
2023-04-12T00:36:36.861Z,17.23
2023-04-12T00:39:03.768Z,16.17
2023-04-12T00:41:30.541Z,16.70
2023-04-12T00:43:57.578Z,16.92
2023-04-12T00:46:24.602Z,16.73
2023-04-12T00:48:51.548Z,15.90
2023-04-12T00:51:22.297Z,16.38
2023-04-12T00:53:49.473Z,16.40
2023-04-12T00:56:16.741Z,17.77
2023-04-12T00:58:43.465Z,17.10
2023-04-12T01:01:10.607Z,16.15
2023-04-12T01:03:43.190Z,17.27
2023-04-12T01:06:18.901Z,17.40
2023-04-12T01:09:08.338Z,16.85
2023-04-12T01:11:42.516Z,17.73
2023-04-12T01:14:22.870Z,18.15
2023-04-12T01:16:56.391Z,17.67
2023-04-12T01:19:34.121Z,17.98
2023-04-12T01:22:29.114Z,20.05
2023-04-12T01:25:34.360Z,18.17
2023-04-12T01:28:04.361Z,18.10
2023-04-12T01:30:32.569Z,19.38
2023-04-12T01:33:02.002Z,19.75
2023-04-12T01:35:32.786Z,18.85
2023-04-12T01:38:01.507Z,18.50
2023-04-12T01:40:31.112Z,17.85
2023-04-12T01:43:06.160Z,18.45
2023-04-12T01:45:33.612Z,17.40
2023-04-12T01:48:01.857Z,17.02
2023-04-12T01:51:06.488Z,16.52
2023-04-12T01:53:59.391Z,17.13
2023-04-12T01:56:32.546Z,17.30
2023-04-12T01:59:00.885Z,18.23
2023-04-12T02:01:29.362Z,18.38
2023-04-12T02:04:01.610Z,18.70
2023-04-12T02:06:29.116Z,18.67
2023-04-12T02:09:02.298Z,17.70
2023-04-12T02:11:29.594Z,19.60
2023-04-12T02:13:56.732Z,18.70
2023-04-12T02:16:24.257Z,19.63
2023-04-12T02:18:51.783Z,20.35
2023-04-12T02:21:18.954Z,21.00
2023-04-12T02:23:45.788Z,19.52
2023-04-12T02:26:13.110Z,21.10
2023-04-12T02:28:40.094Z,19.45
2023-04-12T02:31:07.232Z,20.20
2023-04-12T02:33:34.848Z,20.42
2023-04-12T02:36:04.911Z,21.40
2023-04-12T02:38:31.833Z,21.33
2023-04-12T02:40:58.625Z,19.30
2023-04-12T02:43:25.593Z,20.67
2023-04-12T02:45:52.415Z,21.50
2023-04-12T02:48:19.230Z,20.48
2023-04-12T02:50:46.034Z,19.73
2023-04-12T02:53:12.778Z,20.10
2023-04-12T02:55:40.463Z,20.48
2023-04-12T02:58:07.426Z,20.77
2023-04-12T03:00:34.212Z,22.23
2023-04-12T03:03:03.102Z,21.10
2023-04-12T03:05:30.105Z,22.52
2023-04-12T03:07:56.941Z,20.88
2023-04-12T03:10:23.949Z,21.75
2023-04-12T03:12:51.022Z,19.52
2023-04-12T03:15:17.987Z,20.35
2023-04-12T03:17:45.104Z,20.88
2023-04-12T03:20:13.492Z,20.00
2023-04-12T03:22:40.708Z,19.77
2023-04-12T03:25:09.980Z,20.67
2023-04-12T03:27:36.851Z,20.63
2023-04-12T03:30:04.072Z,20.98
2023-04-12T03:32:30.836Z,20.40
2023-04-12T03:34:57.992Z,20.70
2023-04-12T03:37:24.977Z,20.50
2023-04-12T03:39:51.783Z,21.63
2023-04-12T03:42:31.669Z,21.38
2023-04-12T03:44:59.560Z,20.35
2023-04-12T03:47:26.416Z,22.65
2023-04-12T03:50:10.418Z,21.33
2023-04-12T03:52:38.935Z,20.77
2023-04-12T03:55:07.652Z,22.17
2023-04-12T03:57:35.296Z,22.35
2023-04-12T04:00:02.594Z,21.48
2023-04-12T04:02:30.056Z,22.67
2023-04-12T04:04:57.219Z,21.80
2023-04-12T04:07:24.096Z,21.77
2023-04-12T04:09:51.064Z,22.42
2023-04-12T04:12:17.903Z,22.05
2023-04-12T04:14:44.828Z,22.05
2023-04-12T04:17:11.556Z,23.58
2023-04-12T04:19:39.661Z,23.80
2023-04-12T04:22:07.041Z,21.15
2023-04-12T04:24:34.242Z,23.15
2023-04-12T04:27:01.089Z,23.55
2023-04-12T04:29:29.166Z,22.63
2023-04-12T04:31:57.432Z,21.48
2023-04-12T04:34:25.421Z,22.65
2023-04-12T04:36:52.823Z,23.65
2023-04-12T04:39:19.618Z,22.73
2023-04-12T04:41:46.672Z,22.35
2023-04-12T04:44:14.397Z,23.70
2023-04-12T04:46:41.384Z,22.83
2023-04-12T04:49:08.226Z,22.48
2023-04-12T04:51:35.091Z,22.58
2023-04-12T04:54:02.313Z,22.58
2023-04-12T04:56:29.187Z,22.38
2023-04-12T04:58:57.262Z,21.98
2023-04-12T05:04:09.149Z,23.70
2023-04-12T05:06:36.013Z,23.15
2023-04-12T05:09:04.176Z,21.15
2023-04-12T05:11:31.134Z,21.73
2023-04-12T05:13:57.992Z,20.20
2023-04-12T05:16:24.862Z,19.25
2023-04-12T05:18:51.922Z,18.88
2023-04-12T05:21:18.730Z,18.92
2023-04-12T05:23:47.571Z,19.65
2023-04-12T05:26:14.624Z,22.30
2023-04-12T05:28:41.837Z,21.50
2023-04-12T05:31:08.872Z,19.48
2023-04-12T05:33:36.854Z,19.15
2023-04-12T05:36:05.259Z,20.42
2023-04-12T05:38:32.116Z,20.77
2023-04-12T05:40:59.154Z,20.92
2023-04-12T05:43:26.243Z,20.17
2023-04-12T05:45:53.346Z,20.88
2023-04-12T05:48:21.253Z,20.05
2023-04-12T05:50:53.283Z,21.02
2023-04-12T05:55:48.231Z,18.90
2023-04-12T05:58:15.491Z,20.77
2023-04-12T06:00:42.463Z,20.77
2023-04-12T06:03:10.709Z,22.10
2023-04-12T06:05:38.682Z,20.83
2023-04-12T06:08:05.854Z,21.25
2023-04-12T06:10:32.803Z,21.23
2023-04-12T06:12:59.861Z,21.73
2023-04-12T06:15:26.734Z,22.95
2023-04-12T06:17:54.748Z,21.40
2023-04-12T06:20:21.589Z,21.85
2023-04-12T06:22:48.467Z,23.60
2023-04-12T06:25:16.585Z,22.08
2023-04-12T06:27:44.047Z,21.05
2023-04-12T06:30:11.324Z,21.42
2023-04-12T06:32:38.711Z,20.55
2023-04-12T06:35:06.196Z,19.67
2023-04-12T06:37:32.966Z,21.13
2023-04-12T06:39:59.786Z,19.38
2023-04-12T06:42:26.565Z,19.63
2023-04-12T06:44:53.393Z,19.17
2023-04-12T06:47:23.086Z,19.70
2023-04-12T06:49:52.791Z,18.58
2023-04-12T06:52:23.756Z,18.77
2023-04-12T06:54:50.759Z,19.80
2023-04-12T06:57:17.633Z,19.10
2023-04-12T06:59:44.368Z,19.42
2023-04-12T07:02:12.101Z,19.45
2023-04-12T07:04:38.995Z,19.05
2023-04-12T07:07:07.119Z,19.40
2023-04-12T07:09:33.942Z,19.02
2023-04-12T07:12:02.379Z,17.85
2023-04-12T07:14:29.203Z,18.27
2023-04-12T07:16:56.215Z,19.40
2023-04-12T07:19:23.058Z,17.15
2023-04-12T07:21:49.851Z,17.08
2023-04-12T07:24:16.604Z,17.95
2023-04-12T07:26:43.431Z,17.05
2023-04-12T07:29:11.466Z,18.38
2023-04-12T07:31:38.212Z,16.92
2023-04-12T07:34:05.113Z,17.52
2023-04-12T07:36:32.161Z,16.60
2023-04-12T07:38:59.180Z,17.05
2023-04-12T07:41:26.220Z,16.60
2023-04-12T07:43:53.273Z,17.58
2023-04-12T07:46:20.181Z,17.23
2023-04-12T07:48:47.125Z,15.95
2023-04-12T07:51:13.937Z,17.30
2023-04-12T07:53:41.977Z,17.05
2023-04-12T07:56:08.965Z,17.40
2023-04-12T07:58:35.882Z,16.38
2023-04-12T08:01:02.718Z,17.55
2023-04-12T08:03:29.522Z,17.70
2023-04-12T08:05:56.566Z,17.80
2023-04-12T08:08:23.408Z,17.48
2023-04-12T08:10:51.633Z,16.77
2023-04-12T08:13:18.537Z,17.60
2023-04-12T08:15:47.424Z,18.13
2023-04-12T08:18:14.603Z,17.48
2023-04-12T08:20:41.541Z,17.13
2023-04-12T08:23:08.407Z,17.05
2023-04-12T08:25:35.286Z,17.75
2023-04-12T08:28:02.145Z,48.55
2023-04-12T08:30:29.241Z,18.35
2023-04-12T08:32:56.544Z,18.15
2023-04-12T08:35:24.065Z,18.75
2023-04-12T08:37:51.336Z,17.33
2023-04-12T08:40:18.189Z,18.08
2023-04-12T08:42:44.977Z,17.48
2023-04-12T08:45:12.794Z,18.05
2023-04-12T08:47:42.571Z,17.80
2023-04-12T08:50:13.855Z,18.58
2023-04-12T08:52:42.720Z,18.60
2023-04-12T08:55:10.827Z,18.08
2023-04-12T08:57:41.666Z,18.42
2023-04-12T09:00:10.126Z,19.65
2023-04-12T09:02:38.571Z,18.98
2023-04-12T09:05:06.888Z,18.60
2023-04-12T09:07:34.439Z,21.85
2023-04-12T09:10:02.447Z,19.02
2023-04-12T09:12:31.077Z,18.98
2023-04-12T09:15:12.852Z,18.13
2023-04-12T09:17:42.060Z,18.25
2023-04-12T09:20:18.007Z,18.40
2023-04-12T09:22:46.554Z,18.52
2023-04-12T09:25:15.680Z,18.08
2023-04-12T09:27:54.309Z,16.38
2023-04-12T09:30:21.297Z,17.95
2023-04-12T09:32:49.677Z,16.85
2023-04-12T09:35:16.724Z,16.38
2023-04-12T09:37:43.714Z,15.23
2023-04-12T09:40:11.288Z,16.38
2023-04-12T09:42:56.561Z,17.00
2023-04-12T09:45:26.192Z,15.38
2023-04-12T09:47:57.137Z,16.15
2023-04-12T09:50:29.303Z,18.17
2023-04-12T09:52:57.916Z,17.65
2023-04-12T09:55:26.465Z,16.13
2023-04-12T09:57:56.518Z,15.50
2023-04-12T10:00:26.987Z,15.55
2023-04-12T10:02:57.203Z,15.93
2023-04-12T10:05:26.650Z,16.13
2023-04-12T10:07:55.325Z,15.25
2023-04-12T10:10:23.580Z,15.52
2023-04-12T10:12:51.087Z,14.90
2023-04-12T10:15:23.264Z,14.82
2023-04-12T10:17:53.147Z,15.35
2023-04-12T10:20:22.393Z,14.85
2023-04-12T10:22:52.401Z,14.90
2023-04-12T10:25:25.358Z,15.80
2023-04-12T10:27:52.392Z,14.98
2023-04-12T10:30:33.569Z,14.18
2023-04-12T10:33:03.582Z,14.53
2023-04-12T10:35:52.608Z,15.40
2023-04-12T10:38:20.132Z,14.85
2023-04-12T10:41:09.202Z,15.55
2023-04-12T10:43:36.094Z,13.77
2023-04-12T10:46:07.096Z,15.57
2023-04-12T10:48:52.511Z,16.37
2023-04-12T10:51:28.649Z,15.75
2023-04-12T10:54:08.086Z,14.40
2023-04-12T10:56:39.874Z,14.27
2023-04-12T10:59:11.427Z,14.10
2023-04-12T11:01:39.660Z,15.80
2023-04-12T11:04:25.009Z,14.50
2023-04-12T11:07:10.172Z,11.73
2023-04-12T11:09:37.000Z,14.43
2023-04-12T11:12:09.573Z,12.43
2023-04-12T11:14:49.177Z,12.38
2023-04-12T11:17:16.178Z,11.93
2023-04-12T11:19:56.613Z,12.60
2023-04-12T11:22:28.750Z,11.55
2023-04-12T11:24:58.626Z,11.55
2023-04-12T11:27:26.842Z,11.70
2023-04-12T11:29:58.362Z,12.35
2023-04-12T11:32:29.544Z,10.85
2023-04-12T11:34:58.690Z,11.50
2023-04-12T11:37:27.297Z,11.20
2023-04-12T11:39:57.101Z,10.68
2023-04-12T11:42:25.424Z,10.23
2023-04-12T11:44:58.755Z,10.65
2023-04-12T11:47:31.345Z,7.93
2023-04-12T11:49:59.410Z,7.90
2023-04-12T11:52:31.900Z,7.03
2023-04-12T11:55:06.948Z,7.55
2023-04-12T11:57:34.744Z,6.35
2023-04-12T12:00:01.709Z,7.45
2023-04-12T12:02:32.821Z,7.72
2023-04-12T12:05:03.186Z,7.93
2023-04-12T12:07:30.776Z,7.60
2023-04-12T12:09:58.428Z,8.32
2023-04-12T12:12:25.722Z,7.28
2023-04-12T12:14:52.626Z,6.97
2023-04-12T12:17:19.584Z,6.93
2023-04-12T12:19:46.802Z,7.15
2023-04-12T12:22:22.631Z,7.50
2023-04-12T12:24:58.257Z,7.40
2023-04-12T12:27:34.161Z,7.25
2023-04-12T12:30:04.383Z,7.38
2023-04-12T12:32:35.306Z,6.88
2023-04-12T12:35:02.910Z,6.85
2023-04-12T12:37:31.393Z,6.90
2023-04-12T12:40:11.147Z,7.20
2023-04-12T12:43:03.984Z,7.15
2023-04-12T12:45:34.293Z,6.97
2023-04-12T12:48:03.805Z,7.15
2023-04-12T12:50:33.320Z,6.95
2023-04-12T12:53:03.570Z,7.22
2023-04-12T12:55:31.631Z,8.68
2023-04-12T12:58:06.736Z,7.90
2023-04-12T13:00:35.438Z,8.52
2023-04-12T13:03:13.423Z,9.63
2023-04-12T13:05:42.624Z,11.35
2023-04-12T13:08:11.314Z,10.65
2023-04-12T13:10:38.283Z,8.10
2023-04-12T13:13:05.121Z,7.95
2023-04-12T13:15:32.081Z,8.43
2023-04-12T13:17:59.220Z,8.55
2023-04-12T13:20:28.269Z,9.43
2023-04-12T13:22:55.539Z,7.88
2023-04-12T13:25:22.785Z,8.02
2023-04-12T13:27:51.230Z,8.70
2023-04-12T13:30:21.236Z,8.98
2023-04-12T13:32:48.168Z,8.73
2023-04-12T13:35:15.146Z,8.48
2023-04-12T13:37:42.163Z,8.45
2023-04-12T13:40:09.590Z,8.30
2023-04-12T13:42:38.131Z,8.18
2023-04-12T13:45:05.928Z,8.38
2023-04-12T13:47:34.009Z,8.85
2023-04-12T13:50:04.239Z,8.73
2023-04-12T13:52:31.129Z,9.80
2023-04-12T13:54:59.653Z,8.70
2023-04-12T13:57:26.721Z,9.57
2023-04-12T13:59:53.497Z,9.00
2023-04-12T14:02:21.514Z,8.82
2023-04-12T14:04:52.866Z,15.55
2023-04-12T14:07:20.609Z,10.55
2023-04-12T14:09:48.769Z,8.75
2023-04-12T14:12:16.026Z,9.30
2023-04-12T14:14:42.810Z,9.93
2023-04-12T14:17:09.965Z,10.82
2023-04-12T14:19:36.738Z,10.77
2023-04-12T14:22:03.934Z,10.35
2023-04-12T14:24:31.571Z,9.90
2023-04-12T14:27:00.951Z,10.63
2023-04-12T14:29:27.898Z,11.23
2023-04-12T14:31:54.718Z,10.80
2023-04-12T14:34:21.585Z,10.30
2023-04-12T14:36:48.488Z,10.40
2023-04-12T14:41:42.479Z,10.23
2023-04-12T14:44:09.373Z,11.07
2023-04-12T14:46:36.411Z,31.73
2023-04-12T14:49:03.246Z,23.80
2023-04-12T14:51:30.493Z,12.10
2023-04-12T14:53:58.702Z,10.80
2023-04-12T14:56:29.094Z,10.65
2023-04-12T15:01:25.659Z,9.95
2023-04-12T15:03:53.769Z,10.25
2023-04-12T15:06:23.455Z,9.77
2023-04-12T15:08:57.434Z,9.25
2023-04-12T15:11:27.338Z,9.55
2023-04-12T15:13:56.105Z,11.73
2023-04-12T15:16:23.616Z,9.27
2023-04-12T15:18:51.656Z,9.95
2023-04-12T15:21:20.488Z,9.93
2023-04-12T15:23:47.593Z,10.18
2023-04-12T15:26:16.256Z,10.95
2023-04-12T15:28:43.367Z,9.85
2023-04-12T15:31:12.109Z,10.48
2023-04-12T15:33:39.046Z,11.15
2023-04-12T15:36:06.243Z,9.82
2023-04-12T15:38:41.483Z,9.65
2023-04-12T15:41:08.866Z,9.80
2023-04-12T15:43:35.854Z,13.82
2023-04-12T15:46:03.104Z,12.73
2023-04-12T15:48:29.935Z,12.32
2023-04-12T15:50:57.892Z,11.68
2023-04-12T15:53:26.659Z,10.60
2023-04-12T15:55:57.801Z,10.77
2023-04-12T15:58:26.978Z,10.00
2023-04-12T16:00:54.510Z,12.10
2023-04-12T16:03:26.484Z,11.48
2023-04-12T16:05:54.232Z,11.80
2023-04-12T16:08:22.371Z,13.02
2023-04-12T16:10:50.770Z,10.65
2023-04-12T16:13:18.742Z,11.40
2023-04-12T16:15:47.973Z,11.35
2023-04-12T16:18:14.986Z,10.60
2023-04-12T16:23:27.874Z,10.55
2023-04-12T16:28:39.204Z,11.45
2023-04-12T16:31:07.109Z,10.85
2023-04-12T16:33:34.461Z,13.30
2023-04-12T16:36:04.841Z,11.60
2023-04-12T16:38:34.549Z,12.45
2023-04-12T16:41:02.150Z,11.98
2023-04-12T16:43:31.577Z,12.02
2023-04-12T16:46:04.961Z,11.45
2023-04-12T16:48:36.473Z,10.93
2023-04-12T16:51:03.538Z,12.48
2023-04-12T16:53:30.952Z,24.80
2023-04-12T16:56:02.313Z,36.47
2023-04-12T16:58:54.178Z,23.27
2023-04-12T17:01:23.056Z,14.80
2023-04-12T17:03:50.143Z,12.00
2023-04-12T17:06:33.046Z,10.70
2023-04-12T17:09:21.149Z,11.95
2023-04-12T17:11:47.932Z,12.13
2023-04-12T17:14:14.985Z,11.90
2023-04-12T17:16:42.417Z,12.50
2023-04-12T17:19:10.570Z,12.95
2023-04-12T17:21:41.439Z,12.05
2023-04-12T17:24:25.884Z,12.65
2023-04-12T17:26:55.251Z,11.80
2023-04-12T17:29:22.572Z,12.02
2023-04-12T17:31:51.852Z,12.50
2023-04-12T17:34:21.383Z,12.02
2023-04-12T17:36:49.253Z,11.90
2023-04-12T17:39:16.751Z,10.95
2023-04-12T17:41:43.687Z,13.75
2023-04-12T17:44:10.835Z,12.15
2023-04-12T17:46:38.116Z,11.85
2023-04-12T17:49:06.794Z,12.23
2023-04-12T17:51:33.898Z,12.43
2023-04-12T17:54:03.641Z,12.85
2023-04-12T17:56:30.677Z,12.20
2023-04-12T17:58:57.858Z,12.27
2023-04-12T18:01:25.625Z,13.32
2023-04-12T18:03:52.603Z,12.07
2023-04-12T18:06:20.867Z,13.55
2023-04-12T18:08:49.915Z,13.13
2023-04-12T18:11:17.272Z,12.45
2023-04-12T18:13:53.511Z,12.73
2023-04-12T18:16:20.346Z,11.68
2023-04-12T18:18:48.317Z,12.77
2023-04-12T18:21:20.212Z,11.85
2023-04-12T18:23:50.041Z,12.95
2023-04-12T18:26:16.928Z,12.80
2023-04-12T18:34:11.594Z,13.38
2023-04-12T18:39:20.771Z,14.05
2023-04-12T18:41:49.235Z,12.95
2023-04-12T18:44:26.214Z,14.23
2023-04-12T18:46:53.395Z,13.48
2023-04-12T18:49:30.090Z,13.23
2023-04-12T18:51:58.905Z,12.85
2023-04-12T18:54:29.465Z,13.82
2023-04-12T18:57:02.050Z,12.60
2023-04-12T18:59:29.977Z,12.65
2023-04-12T19:02:02.819Z,13.15
2023-04-12T19:04:29.924Z,12.75
2023-04-12T19:07:20.448Z,12.95
2023-04-12T19:09:48.893Z,13.65
2023-04-12T19:12:18.409Z,13.27
2023-04-12T19:14:47.230Z,13.77
2023-04-12T19:17:24.745Z,14.43
2023-04-12T19:20:25.179Z,14.40
2023-04-12T19:25:38.110Z,25.80
2023-04-12T19:28:28.551Z,16.27
2023-04-12T19:30:59.233Z,15.07
2023-04-12T19:33:27.224Z,13.30
2023-04-12T19:36:15.664Z,12.48
2023-04-12T19:38:44.871Z,12.00
2023-04-12T19:41:14.450Z,12.48
2023-04-12T19:43:52.792Z,11.80
2023-04-12T19:49:21.330Z,12.07
2023-04-12T19:51:51.997Z,12.20
2023-04-12T19:54:27.472Z,13.20
2023-04-12T19:57:09.445Z,12.57
2023-04-12T19:59:43.319Z,15.00
2023-04-12T20:02:26.855Z,13.70
2023-04-12T20:04:54.751Z,13.20
2023-04-12T20:07:45.699Z,12.18
2023-04-12T20:10:50.965Z,13.32
2023-04-12T20:25:15.894Z,13.50
2023-04-12T20:27:52.856Z,14.18
2023-04-12T20:30:30.705Z,16.08
2023-04-12T20:33:02.257Z,15.30
2023-04-12T20:35:55.816Z,17.23
2023-04-12T20:38:25.357Z,17.35
2023-04-12T20:40:53.299Z,17.48
2023-04-12T20:43:25.873Z,16.63
2023-04-12T20:45:56.542Z,14.57
2023-04-12T20:48:29.858Z,14.40
2023-04-12T20:53:43.964Z,14.10
2023-04-12T20:56:13.168Z,15.40
2023-04-12T20:58:41.695Z,15.15
2023-04-12T21:01:25.876Z,16.60
2023-04-12T21:03:56.112Z,16.58
2023-04-12T21:06:25.337Z,16.85
2023-04-12T21:08:54.580Z,16.88
2023-04-12T21:11:23.736Z,17.10
2023-04-12T21:13:58.881Z,16.83
2023-04-12T21:16:26.612Z,16.75
2023-04-12T21:18:54.775Z,17.73
2023-04-12T21:21:23.836Z,18.50
2023-04-12T21:23:51.733Z,17.45
2023-04-12T21:26:18.584Z,17.27
2023-04-12T21:28:50.352Z,18.05
2023-04-12T21:31:19.388Z,18.90
2023-04-12T21:33:46.908Z,18.27
2023-04-12T21:36:17.341Z,17.88
2023-04-12T21:38:51.864Z,16.98
2023-04-12T21:41:19.620Z,18.38
2023-04-12T21:43:48.474Z,18.38
2023-04-12T21:46:15.878Z,18.52
2023-04-12T21:48:44.632Z,20.27
2023-04-12T21:51:14.297Z,20.80
2023-04-12T21:53:44.987Z,19.80
2023-04-12T21:56:12.116Z,20.92
2023-04-12T21:58:42.355Z,19.83
2023-04-12T22:01:09.400Z,19.75
2023-04-12T22:03:36.570Z,20.02
2023-04-12T22:06:05.124Z,20.83
2023-04-12T22:08:32.970Z,20.60
2023-04-12T22:11:00.383Z,21.38
2023-04-12T22:13:27.623Z,20.65
2023-04-12T22:15:54.365Z,21.50
2023-04-12T22:18:21.125Z,21.40
2023-04-12T22:20:48.145Z,21.60
2023-04-12T22:23:18.036Z,20.65
2023-04-12T22:25:45.574Z,20.50
2023-04-12T22:28:12.527Z,20.35
2023-04-12T22:30:39.828Z,19.75
2023-04-12T22:33:08.523Z,19.48
2023-04-12T22:35:36.367Z,20.90
2023-04-12T22:38:04.151Z,20.90
2023-04-12T22:40:31.053Z,20.08
2023-04-12T22:42:58.286Z,19.02
2023-04-12T22:45:25.310Z,18.63
2023-04-12T22:47:52.995Z,19.75
2023-04-12T22:50:20.274Z,19.23
2023-04-12T22:52:49.993Z,20.52
2023-04-12T22:55:18.053Z,20.23
2023-04-12T22:57:45.308Z,20.10
2023-04-12T23:00:16.565Z,19.75
2023-04-12T23:02:45.044Z,19.80
2023-04-12T23:05:12.612Z,19.98
2023-04-12T23:07:41.406Z,21.33
2023-04-12T23:10:08.847Z,20.35
2023-04-12T23:12:37.383Z,20.48
2023-04-12T23:15:06.467Z,18.35
2023-04-12T23:17:33.937Z,19.55
2023-04-12T23:20:01.963Z,20.58
2023-04-12T23:22:55.381Z,18.92
2023-04-12T23:25:25.946Z,18.48
2023-04-12T23:27:52.722Z,18.67
2023-04-12T23:30:20.231Z,18.98
2023-04-12T23:32:47.393Z,18.77
2023-04-12T23:35:14.542Z,19.00
2023-04-12T23:37:41.830Z,18.95
2023-04-12T23:40:14.465Z,19.40
2023-04-12T23:42:42.739Z,20.20
2023-04-12T23:45:13.549Z,21.35
2023-04-12T23:47:40.555Z,21.25
2023-04-12T23:50:07.706Z,19.98
2023-04-12T23:52:34.564Z,20.23
2023-04-12T23:55:02.646Z,18.55
2023-04-12T23:57:29.654Z,18.05
2023-04-12T23:59:56.854Z,19.98
